createdAt,value
2019-02-27T00:01:45.069Z,99.90
2019-02-27T00:04:15.685Z,99.90
2019-02-27T00:06:48.013Z,99.90
2019-02-27T00:09:20.400Z,99.90
2019-02-27T00:11:50.801Z,99.90
2019-02-27T00:14:21.124Z,99.90
2019-02-27T00:16:51.598Z,99.90
2019-02-27T00:19:22.068Z,99.90
2019-02-27T00:21:54.120Z,99.90
2019-02-27T00:24:27.064Z,99.90
2019-02-27T00:26:58.907Z,99.90
2019-02-27T00:29:29.611Z,99.90
2019-02-27T00:32:00.036Z,99.90
2019-02-27T00:34:32.815Z,99.90
2019-02-27T00:37:02.608Z,99.90
2019-02-27T00:39:34.602Z,99.90
2019-02-27T00:42:06.684Z,99.90
2019-02-27T00:44:37.108Z,99.90
2019-02-27T00:47:07.570Z,99.90
2019-02-27T00:49:37.892Z,99.90
2019-02-27T00:52:08.396Z,99.90
2019-02-27T00:54:38.722Z,99.90
2019-02-27T00:57:09.062Z,99.90
2019-02-27T00:59:40.377Z,99.90
2019-02-27T01:02:10.744Z,99.90
2019-02-27T01:04:41.074Z,99.90
2019-02-27T01:07:11.693Z,99.90
2019-02-27T01:09:42.701Z,99.90
2019-02-27T01:12:13.170Z,99.90
2019-02-27T01:14:43.484Z,99.90
2019-02-27T01:17:13.893Z,99.90
2019-02-27T01:19:44.134Z,99.90
2019-02-27T01:22:14.608Z,99.90
2019-02-27T01:24:45.061Z,99.90
2019-02-27T01:27:15.393Z,99.90
2019-02-27T01:29:45.667Z,99.90
2019-02-27T01:32:15.953Z,99.90
2019-02-27T01:34:47.389Z,99.90
2019-02-27T01:37:17.734Z,99.90
2019-02-27T01:39:48.071Z,99.90
2019-02-27T01:42:18.334Z,99.90
2019-02-27T01:44:49.317Z,99.90
2019-02-27T01:47:20.704Z,99.90
2019-02-27T01:49:52.535Z,99.90
2019-02-27T01:52:22.868Z,99.90
2019-02-27T01:54:53.133Z,99.90
2019-02-27T01:57:23.427Z,99.90
2019-02-27T01:59:53.698Z,99.90
2019-02-27T02:02:23.996Z,99.90
2019-02-27T02:04:54.364Z,99.90
2019-02-27T02:07:24.644Z,99.90
2019-02-27T02:09:55.788Z,99.90
2019-02-27T02:12:29.349Z,99.90
2019-02-27T02:15:30.669Z,99.90
2019-02-27T02:18:56.891Z,99.90
2019-02-27T02:22:10.213Z,99.90
2019-02-27T02:25:19.920Z,99.90
2019-02-27T02:28:25.919Z,99.90
2019-02-27T02:31:30.333Z,99.90
2019-02-27T02:34:32.921Z,99.90
2019-02-27T02:37:30.238Z,99.90
2019-02-27T02:40:44.626Z,99.90
2019-02-27T02:43:45.362Z,99.90
2019-02-27T02:46:56.305Z,99.90
2019-02-27T02:50:09.143Z,99.90
2019-02-27T02:53:17.380Z,99.90
2019-02-27T02:56:47.062Z,99.90
2019-02-27T02:59:48.996Z,99.90
2019-02-27T03:02:39.922Z,99.90
2019-02-27T03:05:38.109Z,99.90
2019-02-27T03:08:54.961Z,99.90
2019-02-27T03:11:54.014Z,99.90
2019-02-27T03:14:54.677Z,99.90
2019-02-27T03:18:06.584Z,99.90
2019-02-27T03:21:11.073Z,99.90
2019-02-27T03:24:13.534Z,99.90
2019-02-27T03:27:18.819Z,99.90
2019-02-27T03:30:36.155Z,99.90
2019-02-27T03:34:08.104Z,99.90
2019-02-27T03:37:13.077Z,99.90
2019-02-27T03:40:15.567Z,99.90
2019-02-27T03:43:25.914Z,99.90
2019-02-27T03:46:42.992Z,99.90
2019-02-27T03:49:41.854Z,99.90
2019-02-27T03:53:10.878Z,99.90
2019-02-27T03:56:15.138Z,99.90
2019-02-27T03:59:06.043Z,99.90
2019-02-27T04:01:52.597Z,99.90
2019-02-27T04:05:05.129Z,99.90
2019-02-27T04:08:08.761Z,99.90
2019-02-27T04:10:40.434Z,99.90
2019-02-27T04:13:11.334Z,99.90
2019-02-27T04:15:41.674Z,99.90
2019-02-27T04:18:10.304Z,99.90
2019-02-27T04:20:40.652Z,99.90
2019-02-27T04:23:13.019Z,99.90
2019-02-27T04:25:43.336Z,99.90
2019-02-27T04:28:13.777Z,99.90
2019-02-27T04:30:44.097Z,99.90
2019-02-27T04:33:14.436Z,99.90
2019-02-27T04:35:44.779Z,99.90
2019-02-27T04:38:15.097Z,99.90
2019-02-27T04:40:45.331Z,99.90
2019-02-27T04:43:15.682Z,99.90
2019-02-27T04:45:46.798Z,99.90
2019-02-27T04:48:17.917Z,99.90
2019-02-27T04:50:48.263Z,99.90
2019-02-27T04:53:18.560Z,99.90
2019-02-27T04:55:50.556Z,99.90
2019-02-27T04:58:20.924Z,99.90
2019-02-27T05:00:51.198Z,99.90
2019-02-27T05:03:21.463Z,99.90
2019-02-27T05:05:51.806Z,99.90
2019-02-27T05:08:26.804Z,99.90
2019-02-27T05:10:54.241Z,99.90
2019-02-27T05:13:24.610Z,99.90
2019-02-27T05:15:54.944Z,99.90
2019-02-27T05:18:29.287Z,99.90
2019-02-27T05:20:57.200Z,99.90
2019-02-27T05:23:27.560Z,99.90
2019-02-27T05:25:57.848Z,99.90
2019-02-27T05:28:28.202Z,99.90
2019-02-27T05:30:58.499Z,99.90
2019-02-27T05:33:28.986Z,99.90
2019-02-27T05:35:59.353Z,99.90
2019-02-27T05:38:29.641Z,99.90
2019-02-27T05:41:00.595Z,99.90
2019-02-27T05:43:31.100Z,99.90
2019-02-27T05:46:03.756Z,99.90
2019-02-27T05:48:34.107Z,99.90
2019-02-27T05:51:04.952Z,99.90
2019-02-27T05:53:36.402Z,99.90
2019-02-27T05:56:06.688Z,99.90
2019-02-27T05:58:36.975Z,99.90
2019-02-27T06:01:07.331Z,99.90
2019-02-27T06:03:37.703Z,99.90
2019-02-27T06:06:11.562Z,99.90
2019-02-27T06:08:40.058Z,99.90
2019-02-27T06:11:10.379Z,99.90
2019-02-27T06:13:40.693Z,99.90
2019-02-27T06:16:11.000Z,99.90
2019-02-27T06:18:41.326Z,99.90
2019-02-27T06:21:15.541Z,99.90
2019-02-27T06:23:43.762Z,99.90
2019-02-27T06:26:14.092Z,99.90
2019-02-27T06:28:44.542Z,99.90
2019-02-27T06:31:14.908Z,99.90
2019-02-27T06:33:46.936Z,99.90
2019-02-27T06:36:17.228Z,99.90
2019-02-27T06:38:47.580Z,99.90
2019-02-27T06:41:17.935Z,99.90
2019-02-27T06:43:48.353Z,99.90
2019-02-27T06:46:20.073Z,99.90
2019-02-27T06:48:50.625Z,99.90
2019-02-27T06:51:21.013Z,99.90
2019-02-27T06:53:51.321Z,99.90
2019-02-27T06:56:21.593Z,99.90
2019-02-27T06:58:54.427Z,99.90
2019-02-27T07:01:24.717Z,99.90
2019-02-27T07:03:56.367Z,99.90
2019-02-27T07:06:26.732Z,99.90
2019-02-27T07:08:57.039Z,99.90
2019-02-27T07:11:27.343Z,99.90
2019-02-27T07:13:59.207Z,99.90
2019-02-27T07:16:29.554Z,99.90
2019-02-27T07:18:59.952Z,99.90
2019-02-27T07:21:32.947Z,99.90
2019-02-27T07:24:03.572Z,99.90
2019-02-27T07:26:35.000Z,99.90
2019-02-27T07:29:05.383Z,99.90
2019-02-27T07:31:35.597Z,99.90
2019-02-27T07:34:06.070Z,99.90
2019-02-27T07:36:38.527Z,99.90
2019-02-27T07:39:08.517Z,99.90
2019-02-27T07:41:39.404Z,99.90
2019-02-27T07:44:11.006Z,99.90
2019-02-27T07:46:41.331Z,99.90
2019-02-27T07:49:11.574Z,99.90
2019-02-27T07:51:41.955Z,99.90
2019-02-27T07:54:12.366Z,99.90
2019-02-27T07:56:42.705Z,99.90
2019-02-27T07:59:13.079Z,99.90
2019-02-27T08:01:44.119Z,99.90
2019-02-27T08:04:19.064Z,99.90
2019-02-27T08:06:46.621Z,99.90
2019-02-27T08:09:18.922Z,99.90
2019-02-27T08:11:49.181Z,99.90
2019-02-27T08:14:19.526Z,99.90
2019-02-27T08:16:49.868Z,99.90
2019-02-27T08:19:21.388Z,99.90
2019-02-27T08:21:52.734Z,99.90
2019-02-27T08:24:24.855Z,99.90
2019-02-27T08:26:55.476Z,99.90
2019-02-27T08:29:25.836Z,99.90
2019-02-27T08:31:56.129Z,99.90
2019-02-27T08:34:28.273Z,99.90
2019-02-27T08:36:58.694Z,99.90
2019-02-27T08:39:29.109Z,99.90
2019-02-27T08:42:03.138Z,99.90
2019-02-27T08:44:31.662Z,99.90
2019-02-27T08:47:04.111Z,99.90
2019-02-27T08:49:34.104Z,99.90
2019-02-27T08:52:04.540Z,99.90
2019-02-27T08:54:34.918Z,99.90
2019-02-27T08:57:05.304Z,99.90
2019-02-27T08:59:37.021Z,99.90
2019-02-27T09:02:10.044Z,99.90
2019-02-27T09:04:42.857Z,99.90
2019-02-27T09:07:12.591Z,99.90
2019-02-27T09:09:42.972Z,99.90
2019-02-27T09:12:14.018Z,99.90
2019-02-27T09:14:44.534Z,99.90
2019-02-27T09:17:14.928Z,99.90
2019-02-27T09:19:46.403Z,99.90
2019-02-27T09:22:16.929Z,99.90
2019-02-27T09:24:47.351Z,99.90
2019-02-27T09:27:17.735Z,99.90
2019-02-27T09:29:49.395Z,99.90
2019-02-27T09:32:20.473Z,99.90
2019-02-27T09:34:51.077Z,99.90
2019-02-27T09:37:21.366Z,99.90
2019-02-27T09:39:52.094Z,99.90
2019-02-27T09:42:22.563Z,99.90
2019-02-27T09:44:53.020Z,99.90
2019-02-27T09:47:25.749Z,99.90
2019-02-27T09:49:55.563Z,99.90
2019-02-27T09:52:27.839Z,99.90
2019-02-27T09:54:58.065Z,99.90
2019-02-27T09:57:29.274Z,99.90
2019-02-27T10:00:02.986Z,99.90
2019-02-27T10:02:35.272Z,99.90
2019-02-27T10:05:05.845Z,99.90
2019-02-27T10:07:36.240Z,99.90
2019-02-27T10:10:10.234Z,99.90
2019-02-27T10:12:38.892Z,99.90
2019-02-27T10:15:09.311Z,99.90
2019-02-27T10:17:41.136Z,99.90
2019-02-27T10:20:11.636Z,99.90
2019-02-27T10:22:41.977Z,99.90
2019-02-27T10:25:12.533Z,99.90
2019-02-27T10:27:42.877Z,99.90
2019-02-27T10:30:13.234Z,99.90
2019-02-27T10:32:43.558Z,99.90
2019-02-27T10:35:15.268Z,99.90
2019-02-27T10:37:50.525Z,99.90
2019-02-27T10:40:18.721Z,99.90
2019-02-27T10:42:50.391Z,99.90
2019-02-27T10:45:21.031Z,99.90
2019-02-27T10:47:51.456Z,99.90
2019-02-27T10:50:21.787Z,99.90
2019-02-27T10:52:52.074Z,99.90
2019-02-27T10:55:22.515Z,99.90
2019-02-27T10:57:53.455Z,99.90
2019-02-27T11:00:28.711Z,99.90
2019-02-27T11:03:00.836Z,99.90
2019-02-27T11:05:32.554Z,99.90
2019-02-27T11:08:02.936Z,99.90
2019-02-27T11:10:33.344Z,99.90
2019-02-27T11:13:06.724Z,99.90
2019-02-27T11:15:41.100Z,99.90
2019-02-27T11:18:09.417Z,99.90
2019-02-27T11:20:39.743Z,99.90
2019-02-27T11:23:12.408Z,99.90
2019-02-27T11:25:43.760Z,99.90
2019-02-27T11:28:15.716Z,99.90
2019-02-27T11:30:46.270Z,99.90
2019-02-27T11:33:25.760Z,99.90
2019-02-27T11:35:48.702Z,99.90
2019-02-27T11:38:24.207Z,99.90
2019-02-27T11:40:51.255Z,99.90
2019-02-27T11:43:21.594Z,99.90
2019-02-27T11:45:57.793Z,99.90
2019-02-27T11:48:25.239Z,99.90
2019-02-27T11:50:55.603Z,99.90
2019-02-27T11:53:26.992Z,99.90
2019-02-27T11:55:57.475Z,99.90
2019-02-27T11:58:28.041Z,99.90
2019-02-27T12:00:58.446Z,99.90
2019-02-27T12:03:28.792Z,99.90
2019-02-27T12:05:59.088Z,99.90
2019-02-27T12:08:30.276Z,99.90
2019-02-27T12:11:00.864Z,99.90
2019-02-27T12:13:34.875Z,99.90
2019-02-27T12:16:10.634Z,99.90
2019-02-27T12:18:41.503Z,99.90
2019-02-27T12:21:11.805Z,99.90
2019-02-27T12:23:44.185Z,99.90
2019-02-27T12:26:14.137Z,99.90
2019-02-27T12:28:44.587Z,99.90
2019-02-27T12:31:14.871Z,99.90
2019-02-27T12:33:45.254Z,99.90
2019-02-27T12:36:16.078Z,99.90
2019-02-27T12:38:47.620Z,99.90
2019-02-27T12:41:17.865Z,99.90
2019-02-27T12:43:52.206Z,99.90
2019-02-27T12:46:21.146Z,99.90
2019-02-27T12:48:51.681Z,99.90
2019-02-27T12:51:22.004Z,99.90
2019-02-27T12:53:54.620Z,99.90
2019-02-27T12:56:24.388Z,99.90
2019-02-27T12:58:58.748Z,99.90
2019-02-27T13:01:28.364Z,99.90
2019-02-27T13:03:58.663Z,99.90
2019-02-27T13:06:28.976Z,99.90
2019-02-27T13:08:59.307Z,99.90
2019-02-27T13:11:35.504Z,99.90
2019-02-27T13:14:05.838Z,99.30
2019-02-27T13:16:37.154Z,99.90
2019-02-27T13:19:07.476Z,97.70
2019-02-27T13:21:37.826Z,99.90
2019-02-27T13:24:14.988Z,99.50
2019-02-27T13:26:42.723Z,98.50
2019-02-27T13:29:13.124Z,97.30
2019-02-27T13:31:43.585Z,97.40
2019-02-27T13:34:14.563Z,97.00
2019-02-27T13:36:44.968Z,97.30
2019-02-27T13:39:15.473Z,97.50
2019-02-27T13:41:45.872Z,96.30
2019-02-27T13:44:17.175Z,97.70
2019-02-27T13:46:47.461Z,99.50
2019-02-27T13:49:18.631Z,98.00
2019-02-27T13:51:48.948Z,97.70
2019-02-27T13:54:19.361Z,99.90
2019-02-27T13:56:49.794Z,98.50
2019-02-27T13:59:20.211Z,99.90
2019-02-27T14:01:50.503Z,98.70
2019-02-27T14:04:22.639Z,99.90
2019-02-27T14:06:53.151Z,99.70
2019-02-27T14:09:24.543Z,99.90
2019-02-27T14:11:58.418Z,99.90
2019-02-27T14:14:27.194Z,99.90
2019-02-27T14:16:57.552Z,99.90
2019-02-27T14:19:30.521Z,99.90
2019-02-27T14:22:00.839Z,99.90
2019-02-27T14:24:31.172Z,99.90
2019-02-27T14:27:01.567Z,99.90
2019-02-27T14:29:31.916Z,99.90
2019-02-27T14:32:03.230Z,99.90
2019-02-27T14:34:33.571Z,99.90
2019-02-27T14:37:03.905Z,99.90
2019-02-27T14:39:34.383Z,97.80
2019-02-27T14:42:07.803Z,99.90
2019-02-27T14:44:38.196Z,99.90
2019-02-27T14:47:08.497Z,99.90
2019-02-27T14:49:38.843Z,99.90
2019-02-27T14:52:14.295Z,98.60
2019-02-27T14:54:45.987Z,99.70
2019-02-27T14:57:17.394Z,99.90
2019-02-27T14:59:48.479Z,99.90
2019-02-27T15:02:22.048Z,99.90
2019-02-27T15:04:50.951Z,99.90
2019-02-27T15:07:24.196Z,99.90
2019-02-27T15:09:57.050Z,99.90
2019-02-27T15:12:30.160Z,99.90
2019-02-27T15:15:02.750Z,99.90
2019-02-27T15:17:34.437Z,99.90
2019-02-27T15:20:07.234Z,99.90
2019-02-27T15:22:39.244Z,99.90
2019-02-27T15:25:13.307Z,99.90
2019-02-27T15:27:48.328Z,99.90
2019-02-27T15:30:22.140Z,99.90
2019-02-27T15:32:52.582Z,99.90
2019-02-27T15:35:23.098Z,99.90
2019-02-27T15:37:54.860Z,99.90
2019-02-27T15:40:29.652Z,99.90
2019-02-27T15:42:59.826Z,99.90
2019-02-27T15:45:30.628Z,99.90
2019-02-27T15:48:06.494Z,99.90
2019-02-27T15:50:36.237Z,99.90
2019-02-27T15:53:06.789Z,99.90
2019-02-27T15:55:37.928Z,99.90
2019-02-27T15:58:12.428Z,99.90
2019-02-27T16:00:42.778Z,99.90
2019-02-27T16:03:14.861Z,99.90
2019-02-27T16:05:45.429Z,99.90
2019-02-27T16:08:20.152Z,99.90
2019-02-27T16:10:54.766Z,99.90
2019-02-27T16:13:21.768Z,99.90
2019-02-27T16:15:52.333Z,99.90
2019-02-27T16:18:22.899Z,99.90
2019-02-27T16:20:53.442Z,99.90
2019-02-27T16:23:25.462Z,99.90
2019-02-27T16:25:57.154Z,99.90
2019-02-27T16:28:29.668Z,99.90
2019-02-27T16:31:00.037Z,99.90
2019-02-27T16:33:30.672Z,99.90
2019-02-27T16:36:01.403Z,99.90
2019-02-27T16:38:32.610Z,99.90
2019-02-27T16:41:02.951Z,99.90
2019-02-27T16:43:33.386Z,99.90
2019-02-27T16:46:07.678Z,99.90
2019-02-27T16:48:36.075Z,99.90
2019-02-27T16:51:06.467Z,99.90
2019-02-27T16:53:36.890Z,99.90
2019-02-27T16:56:08.269Z,99.90
2019-02-27T16:58:40.046Z,99.90
2019-02-27T17:01:12.940Z,99.90
2019-02-27T17:03:45.157Z,99.90
2019-02-27T17:06:18.240Z,99.90
2019-02-27T17:08:47.847Z,99.90
2019-02-27T17:11:19.793Z,99.90
2019-02-27T17:13:50.394Z,99.90
2019-02-27T17:16:20.902Z,99.90
2019-02-27T17:18:51.198Z,99.90
2019-02-27T17:21:22.563Z,99.90
2019-02-27T17:23:53.587Z,99.90
2019-02-27T17:26:24.094Z,99.90
2019-02-27T17:28:59.267Z,99.90
2019-02-27T17:31:29.705Z,99.90
2019-02-27T17:34:00.164Z,99.90
2019-02-27T17:36:32.110Z,99.90
2019-02-27T17:39:02.575Z,99.90
2019-02-27T17:41:34.629Z,99.90
2019-02-27T17:44:11.078Z,99.90
2019-02-27T17:46:41.494Z,99.90
2019-02-27T17:49:11.842Z,99.90
2019-02-27T17:51:42.456Z,99.90
2019-02-27T17:54:13.178Z,99.90
2019-02-27T17:56:43.501Z,99.90
2019-02-27T17:59:14.893Z,99.90
2019-02-27T18:01:50.982Z,99.90
2019-02-27T18:04:20.968Z,99.90
2019-02-27T18:06:53.066Z,99.90
2019-02-27T18:09:26.184Z,99.90
2019-02-27T18:11:55.394Z,99.90
2019-02-27T18:14:25.783Z,99.90
2019-02-27T18:16:59.250Z,99.90
2019-02-27T18:19:28.526Z,99.90
2019-02-27T18:22:01.733Z,99.90
2019-02-27T18:24:34.114Z,99.90
2019-02-27T18:27:04.443Z,99.90
2019-02-27T18:29:35.049Z,99.90
2019-02-27T18:32:06.596Z,99.90
2019-02-27T18:34:37.404Z,99.90
2019-02-27T18:37:07.872Z,99.90
2019-02-27T18:39:38.334Z,99.90
2019-02-27T18:42:12.143Z,99.90
2019-02-27T18:44:43.612Z,99.90
2019-02-27T18:47:13.995Z,99.90
2019-02-27T18:49:44.438Z,99.90
2019-02-27T18:52:21.202Z,99.90
2019-02-27T18:54:47.119Z,99.90
2019-02-27T18:57:21.381Z,99.90
2019-02-27T18:59:53.441Z,99.90
2019-02-27T19:02:25.215Z,99.90
2019-02-27T19:04:55.599Z,99.90
2019-02-27T19:07:26.043Z,99.90
2019-02-27T19:09:56.471Z,99.90
2019-02-27T19:12:28.677Z,99.90
2019-02-27T19:14:59.326Z,99.90
2019-02-27T19:17:32.141Z,99.90
2019-02-27T19:20:01.845Z,99.90
2019-02-27T19:22:32.791Z,99.90
2019-02-27T19:25:03.335Z,99.90
2019-02-27T19:27:33.762Z,99.90
2019-02-27T19:30:07.184Z,99.90
2019-02-27T19:32:36.959Z,99.90
2019-02-27T19:35:08.594Z,99.90
2019-02-27T19:37:39.806Z,99.90
2019-02-27T19:40:13.247Z,99.90
2019-02-27T19:42:49.682Z,99.90
2019-02-27T19:45:20.207Z,99.90
2019-02-27T19:47:54.773Z,99.90
2019-02-27T19:50:23.375Z,99.90
2019-02-27T19:52:53.820Z,99.90
2019-02-27T19:55:27.301Z,99.90
2019-02-27T19:57:57.988Z,99.90
2019-02-27T20:00:33.780Z,99.90
2019-02-27T20:03:01.570Z,99.90
2019-02-27T20:05:32.480Z,99.90
2019-02-27T20:08:02.964Z,99.90
2019-02-27T20:10:33.452Z,99.90
2019-02-27T20:13:04.026Z,99.90
2019-02-27T20:15:34.332Z,99.90
2019-02-27T20:18:09.576Z,99.90
2019-02-27T20:20:41.151Z,99.90
2019-02-27T20:23:11.729Z,99.90
2019-02-27T20:25:44.191Z,99.90
2019-02-27T20:28:14.449Z,99.90
2019-02-27T20:30:44.869Z,99.90
2019-02-27T20:33:15.445Z,99.90
2019-02-27T20:35:45.940Z,99.90
2019-02-27T20:38:16.994Z,99.90
2019-02-27T20:40:47.452Z,99.90
2019-02-27T20:43:17.926Z,99.90
2019-02-27T20:45:48.313Z,99.90
2019-02-27T20:48:18.614Z,99.90
2019-02-27T20:50:52.223Z,99.90
2019-02-27T20:53:23.268Z,99.90
2019-02-27T20:55:59.444Z,99.90
2019-02-27T20:58:31.566Z,99.90
2019-02-27T21:01:01.905Z,99.90
2019-02-27T21:03:32.306Z,99.90
2019-02-27T21:06:02.675Z,99.90
2019-02-27T21:08:33.294Z,99.90
2019-02-27T21:11:05.170Z,99.90
2019-02-27T21:13:38.243Z,99.90
2019-02-27T21:16:10.627Z,99.90
2019-02-27T21:18:40.809Z,99.90
2019-02-27T21:21:11.093Z,99.90
2019-02-27T21:23:41.563Z,99.90
2019-02-27T21:26:15.061Z,99.90
2019-02-27T21:28:45.374Z,99.90
2019-02-27T21:31:15.767Z,99.90
2019-02-27T21:33:46.540Z,99.90
2019-02-27T21:36:17.095Z,99.90
2019-02-27T21:38:50.374Z,99.90
2019-02-27T21:41:21.796Z,99.90
2019-02-27T21:43:52.106Z,99.90
2019-02-27T21:46:22.529Z,99.90
2019-02-27T21:48:52.941Z,99.90
2019-02-27T21:51:23.356Z,99.90
2019-02-27T21:53:53.799Z,99.90
2019-02-27T21:56:24.223Z,99.90
2019-02-27T21:58:54.641Z,99.90
2019-02-27T22:01:25.035Z,99.90
2019-02-27T22:03:55.548Z,99.90
2019-02-27T22:06:27.423Z,99.90
2019-02-27T22:08:58.995Z,99.90
2019-02-27T22:11:29.317Z,99.90
2019-02-27T22:13:59.692Z,99.90
2019-02-27T22:16:30.618Z,99.90
2019-02-27T22:19:04.292Z,99.90
2019-02-27T22:21:34.870Z,99.90
2019-02-27T22:24:05.208Z,99.90
2019-02-27T22:26:37.576Z,99.90
2019-02-27T22:29:07.745Z,99.90
2019-02-27T22:31:40.521Z,99.90
2019-02-27T22:34:10.128Z,99.90
2019-02-27T22:36:40.396Z,99.90
2019-02-27T22:39:10.768Z,99.90
2019-02-27T22:41:41.829Z,99.90
2019-02-27T22:44:13.861Z,99.90
2019-02-27T22:46:47.778Z,99.90
2019-02-27T22:49:18.320Z,99.90
2019-02-27T22:51:51.337Z,99.90
2019-02-27T22:54:21.693Z,99.90
2019-02-27T22:56:52.060Z,99.90
2019-02-27T22:59:23.057Z,99.90
2019-02-27T23:01:54.659Z,99.90
2019-02-27T23:04:25.456Z,99.90
2019-02-27T23:06:55.766Z,99.90
2019-02-27T23:09:26.593Z,99.90
2019-02-27T23:11:56.841Z,99.90
2019-02-27T23:14:28.700Z,99.90
2019-02-27T23:17:00.641Z,99.90
2019-02-27T23:19:30.955Z,99.90
2019-02-27T23:22:01.344Z,99.90
2019-02-27T23:24:33.203Z,99.90
2019-02-27T23:27:03.536Z,99.90
2019-02-27T23:29:33.943Z,99.90
2019-02-27T23:32:04.425Z,99.90
2019-02-27T23:34:34.829Z,99.90
2019-02-27T23:37:05.313Z,99.90
2019-02-27T23:39:35.665Z,99.90
2019-02-27T23:42:05.941Z,99.90
2019-02-27T23:44:38.796Z,99.90
2019-02-27T23:47:08.537Z,99.90
2019-02-27T23:49:39.696Z,99.90
2019-02-27T23:52:10.711Z,99.90
2019-02-27T23:54:41.142Z,99.90
2019-02-27T23:57:11.476Z,99.90
2019-02-27T23:59:41.770Z,99.90
